sensor_id;sensor_type;location;lat;lon;timestamp;P1;durP1;ratioP1;P2;durP2;ratioP2
69594;SDS011;56800;52.142;5.364;2022-08-19T00:01:32;12.73;;;9.32;;
69594;SDS011;56800;52.142;5.364;2022-08-19T00:04:04;12.90;;;9.25;;
69594;SDS011;56800;52.142;5.364;2022-08-19T00:06:33;13.75;;;8.65;;
69594;SDS011;56800;52.142;5.364;2022-08-19T00:09:04;12.45;;;9.60;;
69594;SDS011;56800;52.142;5.364;2022-08-19T00:11:33;13.93;;;9.97;;
69594;SDS011;56800;52.142;5.364;2022-08-19T00:14:01;13.88;;;10.27;;
69594;SDS011;56800;52.142;5.364;2022-08-19T00:16:29;15.60;;;11.25;;
69594;SDS011;56800;52.142;5.364;2022-08-19T00:18:56;13.52;;;10.27;;
69594;SDS011;56800;52.142;5.364;2022-08-19T00:21:23;13.98;;;10.60;;
69594;SDS011;56800;52.142;5.364;2022-08-19T00:23:52;13.85;;;11.02;;
69594;SDS011;56800;52.142;5.364;2022-08-19T00:26:20;16.05;;;12.02;;
69594;SDS011;56800;52.142;5.364;2022-08-19T00:28:46;16.45;;;12.10;;
69594;SDS011;56800;52.142;5.364;2022-08-19T00:31:13;15.23;;;12.07;;
69594;SDS011;56800;52.142;5.364;2022-08-19T00:33:39;15.55;;;12.43;;
69594;SDS011;56800;52.142;5.364;2022-08-19T00:36:07;23.88;;;12.13;;
69594;SDS011;56800;52.142;5.364;2022-08-19T00:38:36;13.00;;;11.52;;
69594;SDS011;56800;52.142;5.364;2022-08-19T00:41:07;15.10;;;12.02;;
69594;SDS011;56800;52.142;5.364;2022-08-19T00:43:35;18.38;;;11.85;;
69594;SDS011;56800;52.142;5.364;2022-08-19T00:46:02;13.32;;;11.68;;
69594;SDS011;56800;52.142;5.364;2022-08-19T00:48:31;17.15;;;12.93;;
69594;SDS011;56800;52.142;5.364;2022-08-19T00:50:59;18.35;;;11.98;;
69594;SDS011;56800;52.142;5.364;2022-08-19T00:53:27;15.98;;;12.48;;
69594;SDS011;56800;52.142;5.364;2022-08-19T00:55:58;18.02;;;11.95;;
69594;SDS011;56800;52.142;5.364;2022-08-19T00:58:26;16.23;;;12.27;;
69594;SDS011;56800;52.142;5.364;2022-08-19T01:00:56;19.77;;;12.67;;
69594;SDS011;56800;52.142;5.364;2022-08-19T01:03:23;14.20;;;12.25;;
69594;SDS011;56800;52.142;5.364;2022-08-19T01:05:51;16.05;;;12.70;;
69594;SDS011;56800;52.142;5.364;2022-08-19T01:08:19;17.27;;;12.30;;
69594;SDS011;56800;52.142;5.364;2022-08-19T01:10:47;16.92;;;12.88;;
69594;SDS011;56800;52.142;5.364;2022-08-19T01:13:26;16.42;;;11.88;;
69594;SDS011;56800;52.142;5.364;2022-08-19T01:16:15;17.02;;;12.23;;
69594;SDS011;56800;52.142;5.364;2022-08-19T01:18:43;19.90;;;12.60;;
69594;SDS011;56800;52.142;5.364;2022-08-19T01:21:12;15.95;;;12.88;;
69594;SDS011;56800;52.142;5.364;2022-08-19T01:23:53;20.80;;;13.95;;
69594;SDS011;56800;52.142;5.364;2022-08-19T01:26:21;19.27;;;13.90;;
69594;SDS011;56800;52.142;5.364;2022-08-19T01:28:53;23.15;;;14.05;;
69594;SDS011;56800;52.142;5.364;2022-08-19T01:31:25;26.23;;;14.23;;
69594;SDS011;56800;52.142;5.364;2022-08-19T01:33:58;24.40;;;13.35;;
69594;SDS011;56800;52.142;5.364;2022-08-19T01:38:55;16.90;;;12.23;;
69594;SDS011;56800;52.142;5.364;2022-08-19T01:41:24;19.77;;;14.07;;
69594;SDS011;56800;52.142;5.364;2022-08-19T01:43:52;20.15;;;13.57;;
69594;SDS011;56800;52.142;5.364;2022-08-19T01:46:40;18.98;;;13.95;;
69594;SDS011;56800;52.142;5.364;2022-08-19T01:49:07;20.20;;;14.98;;
69594;SDS011;56800;52.142;5.364;2022-08-19T01:51:36;17.13;;;13.90;;
69594;SDS011;56800;52.142;5.364;2022-08-19T01:54:05;20.45;;;14.93;;
69594;SDS011;56800;52.142;5.364;2022-08-19T01:56:33;18.83;;;14.55;;
69594;SDS011;56800;52.142;5.364;2022-08-19T01:59:05;21.20;;;14.40;;
69594;SDS011;56800;52.142;5.364;2022-08-19T02:01:36;19.67;;;15.05;;
69594;SDS011;56800;52.142;5.364;2022-08-19T02:04:03;17.97;;;14.30;;
69594;SDS011;56800;52.142;5.364;2022-08-19T02:06:29;22.30;;;15.55;;
69594;SDS011;56800;52.142;5.364;2022-08-19T02:08:56;24.48;;;18.20;;
69594;SDS011;56800;52.142;5.364;2022-08-19T02:11:24;18.98;;;14.77;;
69594;SDS011;56800;52.142;5.364;2022-08-19T02:13:54;16.70;;;14.05;;
69594;SDS011;56800;52.142;5.364;2022-08-19T02:16:21;18.87;;;15.50;;
69594;SDS011;56800;52.142;5.364;2022-08-19T02:18:48;20.65;;;16.73;;
69594;SDS011;56800;52.142;5.364;2022-08-19T02:21:18;19.75;;;17.20;;
69594;SDS011;56800;52.142;5.364;2022-08-19T02:23:48;19.50;;;16.25;;
69594;SDS011;56800;52.142;5.364;2022-08-19T02:26:15;21.55;;;17.20;;
69594;SDS011;56800;52.142;5.364;2022-08-19T02:28:42;23.60;;;17.83;;
69594;SDS011;56800;52.142;5.364;2022-08-19T02:31:13;20.13;;;17.45;;
69594;SDS011;56800;52.142;5.364;2022-08-19T02:33:43;22.08;;;17.73;;
69594;SDS011;56800;52.142;5.364;2022-08-19T02:36:11;21.20;;;17.40;;
69594;SDS011;56800;52.142;5.364;2022-08-19T02:38:41;19.23;;;17.02;;
69594;SDS011;56800;52.142;5.364;2022-08-19T02:41:16;19.00;;;15.73;;
69594;SDS011;56800;52.142;5.364;2022-08-19T02:43:48;19.48;;;14.75;;
69594;SDS011;56800;52.142;5.364;2022-08-19T02:46:35;20.85;;;15.57;;
69594;SDS011;56800;52.142;5.364;2022-08-19T02:49:04;20.48;;;16.00;;
69594;SDS011;56800;52.142;5.364;2022-08-19T02:51:34;20.13;;;15.20;;
69594;SDS011;56800;52.142;5.364;2022-08-19T02:54:03;21.83;;;16.40;;
69594;SDS011;56800;52.142;5.364;2022-08-19T02:56:31;26.75;;;15.70;;
69594;SDS011;56800;52.142;5.364;2022-08-19T02:58:59;23.20;;;16.05;;
69594;SDS011;56800;52.142;5.364;2022-08-19T03:01:28;18.63;;;15.48;;
69594;SDS011;56800;52.142;5.364;2022-08-19T03:03:57;18.92;;;14.70;;
69594;SDS011;56800;52.142;5.364;2022-08-19T03:06:26;19.83;;;15.00;;
69594;SDS011;56800;52.142;5.364;2022-08-19T03:08:53;19.35;;;14.43;;
69594;SDS011;56800;52.142;5.364;2022-08-19T03:11:21;18.30;;;15.25;;
69594;SDS011;56800;52.142;5.364;2022-08-19T03:13:53;21.30;;;15.25;;
69594;SDS011;56800;52.142;5.364;2022-08-19T03:16:21;22.40;;;15.32;;
69594;SDS011;56800;52.142;5.364;2022-08-19T03:18:49;19.47;;;15.27;;
69594;SDS011;56800;52.142;5.364;2022-08-19T03:21:17;19.02;;;15.25;;
69594;SDS011;56800;52.142;5.364;2022-08-19T03:23:50;20.70;;;14.38;;
69594;SDS011;56800;52.142;5.364;2022-08-19T03:26:20;18.33;;;13.95;;
69594;SDS011;56800;52.142;5.364;2022-08-19T03:28:46;22.42;;;16.13;;
69594;SDS011;56800;52.142;5.364;2022-08-19T03:31:24;23.50;;;16.70;;
69594;SDS011;56800;52.142;5.364;2022-08-19T03:34:12;19.55;;;14.82;;
69594;SDS011;56800;52.142;5.364;2022-08-19T03:36:41;17.92;;;14.38;;
69594;SDS011;56800;52.142;5.364;2022-08-19T03:39:09;19.63;;;13.50;;
69594;SDS011;56800;52.142;5.364;2022-08-19T03:41:37;23.55;;;14.43;;
69594;SDS011;56800;52.142;5.364;2022-08-19T03:44:12;14.87;;;12.60;;
69594;SDS011;56800;52.142;5.364;2022-08-19T03:46:43;20.83;;;13.23;;
69594;SDS011;56800;52.142;5.364;2022-08-19T03:49:11;15.60;;;12.02;;
69594;SDS011;56800;52.142;5.364;2022-08-19T03:51:40;16.02;;;13.15;;
69594;SDS011;56800;52.142;5.364;2022-08-19T03:54:08;18.50;;;12.48;;
69594;SDS011;56800;52.142;5.364;2022-08-19T03:56:37;20.27;;;14.47;;
69594;SDS011;56800;52.142;5.364;2022-08-19T03:59:06;16.90;;;13.13;;
69594;SDS011;56800;52.142;5.364;2022-08-19T04:01:35;17.27;;;13.23;;
69594;SDS011;56800;52.142;5.364;2022-08-19T04:04:01;18.95;;;12.50;;
69594;SDS011;56800;52.142;5.364;2022-08-19T04:06:31;19.13;;;13.55;;
69594;SDS011;56800;52.142;5.364;2022-08-19T04:09:00;19.93;;;13.57;;
69594;SDS011;56800;52.142;5.364;2022-08-19T04:11:31;20.58;;;14.15;;
69594;SDS011;56800;52.142;5.364;2022-08-19T04:14:09;16.52;;;13.85;;
69594;SDS011;56800;52.142;5.364;2022-08-19T04:16:38;17.63;;;14.45;;
69594;SDS011;56800;52.142;5.364;2022-08-19T04:19:05;17.38;;;12.85;;
69594;SDS011;56800;52.142;5.364;2022-08-19T04:21:33;19.47;;;12.70;;
69594;SDS011;56800;52.142;5.364;2022-08-19T04:24:00;20.15;;;13.07;;
69594;SDS011;56800;52.142;5.364;2022-08-19T04:26:30;21.80;;;12.13;;
69594;SDS011;56800;52.142;5.364;2022-08-19T04:29:03;17.15;;;12.48;;
69594;SDS011;56800;52.142;5.364;2022-08-19T04:31:37;17.95;;;12.02;;
69594;SDS011;56800;52.142;5.364;2022-08-19T04:34:07;19.03;;;12.47;;
69594;SDS011;56800;52.142;5.364;2022-08-19T04:36:37;15.02;;;10.48;;
69594;SDS011;56800;52.142;5.364;2022-08-19T04:39:07;18.05;;;12.10;;
69594;SDS011;56800;52.142;5.364;2022-08-19T04:41:36;19.15;;;10.52;;
69594;SDS011;56800;52.142;5.364;2022-08-19T04:44:21;16.15;;;11.57;;
69594;SDS011;56800;52.142;5.364;2022-08-19T04:46:48;16.23;;;11.80;;
69594;SDS011;56800;52.142;5.364;2022-08-19T04:49:18;14.18;;;11.00;;
69594;SDS011;56800;52.142;5.364;2022-08-19T04:51:48;16.58;;;12.45;;
69594;SDS011;56800;52.142;5.364;2022-08-19T04:54:16;18.80;;;13.77;;
69594;SDS011;56800;52.142;5.364;2022-08-19T04:57:03;14.68;;;11.77;;
69594;SDS011;56800;52.142;5.364;2022-08-19T04:59:32;14.87;;;11.87;;
69594;SDS011;56800;52.142;5.364;2022-08-19T05:01:59;20.98;;;13.73;;
69594;SDS011;56800;52.142;5.364;2022-08-19T05:04:26;15.13;;;10.75;;
69594;SDS011;56800;52.142;5.364;2022-08-19T05:06:57;17.48;;;12.95;;
69594;SDS011;56800;52.142;5.364;2022-08-19T05:09:26;16.33;;;12.85;;
69594;SDS011;56800;52.142;5.364;2022-08-19T05:12:14;23.43;;;13.33;;
69594;SDS011;56800;52.142;5.364;2022-08-19T05:14:41;21.98;;;14.82;;
69594;SDS011;56800;52.142;5.364;2022-08-19T05:17:08;23.42;;;17.50;;
69594;SDS011;56800;52.142;5.364;2022-08-19T05:19:53;29.25;;;20.10;;
69594;SDS011;56800;52.142;5.364;2022-08-19T05:22:39;47.78;;;27.92;;
69594;SDS011;56800;52.142;5.364;2022-08-19T05:25:07;43.03;;;26.87;;
69594;SDS011;56800;52.142;5.364;2022-08-19T05:27:39;58.20;;;32.20;;
69594;SDS011;56800;52.142;5.364;2022-08-19T05:30:07;57.40;;;32.17;;
69594;SDS011;56800;52.142;5.364;2022-08-19T05:32:34;63.17;;;33.80;;
69594;SDS011;56800;52.142;5.364;2022-08-19T05:35:01;61.22;;;33.58;;
69594;SDS011;56800;52.142;5.364;2022-08-19T05:37:28;62.60;;;33.80;;
69594;SDS011;56800;52.142;5.364;2022-08-19T05:39:55;62.13;;;32.08;;
69594;SDS011;56800;52.142;5.364;2022-08-19T05:42:22;57.22;;;32.63;;
69594;SDS011;56800;52.142;5.364;2022-08-19T05:44:49;49.28;;;30.10;;
69594;SDS011;56800;52.142;5.364;2022-08-19T05:47:17;57.92;;;31.60;;
69594;SDS011;56800;52.142;5.364;2022-08-19T05:49:45;57.77;;;33.13;;
69594;SDS011;56800;52.142;5.364;2022-08-19T05:52:13;56.25;;;32.55;;
69594;SDS011;56800;52.142;5.364;2022-08-19T05:54:44;55.55;;;30.90;;
69594;SDS011;56800;52.142;5.364;2022-08-19T05:57:16;60.42;;;32.97;;
69594;SDS011;56800;52.142;5.364;2022-08-19T05:59:44;54.95;;;31.60;;
69594;SDS011;56800;52.142;5.364;2022-08-19T06:02:23;54.80;;;31.93;;
69594;SDS011;56800;52.142;5.364;2022-08-19T06:04:53;60.40;;;32.72;;
69594;SDS011;56800;52.142;5.364;2022-08-19T06:07:20;60.58;;;33.17;;
69594;SDS011;56800;52.142;5.364;2022-08-19T06:09:47;60.10;;;35.35;;
69594;SDS011;56800;52.142;5.364;2022-08-19T06:12:30;61.17;;;34.05;;
69594;SDS011;56800;52.142;5.364;2022-08-19T06:15:07;64.30;;;34.77;;
69594;SDS011;56800;52.142;5.364;2022-08-19T06:17:36;67.30;;;37.30;;
69594;SDS011;56800;52.142;5.364;2022-08-19T06:20:03;65.10;;;36.67;;
69594;SDS011;56800;52.142;5.364;2022-08-19T06:22:36;65.38;;;36.28;;
69594;SDS011;56800;52.142;5.364;2022-08-19T06:25:04;70.47;;;37.03;;
69594;SDS011;56800;52.142;5.364;2022-08-19T06:27:31;67.77;;;37.97;;
69594;SDS011;56800;52.142;5.364;2022-08-19T06:29:59;69.70;;;38.15;;
69594;SDS011;56800;52.142;5.364;2022-08-19T06:32:26;67.85;;;38.50;;
69594;SDS011;56800;52.142;5.364;2022-08-19T06:34:53;69.70;;;37.05;;
69594;SDS011;56800;52.142;5.364;2022-08-19T06:37:19;67.88;;;38.40;;
69594;SDS011;56800;52.142;5.364;2022-08-19T06:39:47;66.63;;;35.97;;
69594;SDS011;56800;52.142;5.364;2022-08-19T06:42:14;66.43;;;37.25;;
69594;SDS011;56800;52.142;5.364;2022-08-19T06:44:47;61.63;;;37.53;;
69594;SDS011;56800;52.142;5.364;2022-08-19T06:47:19;64.10;;;36.85;;
69594;SDS011;56800;52.142;5.364;2022-08-19T06:49:57;63.95;;;35.97;;
69594;SDS011;56800;52.142;5.364;2022-08-19T06:52:31;63.90;;;34.80;;
69594;SDS011;56800;52.142;5.364;2022-08-19T06:55:01;74.93;;;36.92;;
69594;SDS011;56800;52.142;5.364;2022-08-19T06:57:31;80.28;;;36.90;;
69594;SDS011;56800;52.142;5.364;2022-08-19T06:59:59;80.15;;;38.60;;
69594;SDS011;56800;52.142;5.364;2022-08-19T07:02:28;79.80;;;37.83;;
69594;SDS011;56800;52.142;5.364;2022-08-19T07:04:55;75.73;;;38.33;;
69594;SDS011;56800;52.142;5.364;2022-08-19T07:07:24;85.20;;;39.03;;
69594;SDS011;56800;52.142;5.364;2022-08-19T07:09:50;76.05;;;39.83;;
69594;SDS011;56800;52.142;5.364;2022-08-19T07:12:27;81.60;;;39.63;;
69594;SDS011;56800;52.142;5.364;2022-08-19T07:14:55;78.47;;;40.65;;
69594;SDS011;56800;52.142;5.364;2022-08-19T07:17:23;89.40;;;44.03;;
69594;SDS011;56800;52.142;5.364;2022-08-19T07:19:50;81.93;;;42.10;;
69594;SDS011;56800;52.142;5.364;2022-08-19T07:22:19;86.55;;;43.22;;
69594;SDS011;56800;52.142;5.364;2022-08-19T07:24:49;79.82;;;43.25;;
69594;SDS011;56800;52.142;5.364;2022-08-19T07:27:17;78.00;;;41.53;;
69594;SDS011;56800;52.142;5.364;2022-08-19T07:29:51;77.60;;;41.60;;
69594;SDS011;56800;52.142;5.364;2022-08-19T07:32:24;84.22;;;41.38;;
69594;SDS011;56800;52.142;5.364;2022-08-19T07:34:52;68.45;;;39.50;;
69594;SDS011;56800;52.142;5.364;2022-08-19T07:37:21;74.20;;;40.20;;
69594;SDS011;56800;52.142;5.364;2022-08-19T07:39:51;75.45;;;40.28;;
69594;SDS011;56800;52.142;5.364;2022-08-19T07:42:18;78.60;;;41.50;;
69594;SDS011;56800;52.142;5.364;2022-08-19T07:44:47;68.70;;;38.92;;
69594;SDS011;56800;52.142;5.364;2022-08-19T07:47:15;74.28;;;40.28;;
69594;SDS011;56800;52.142;5.364;2022-08-19T07:50:04;66.30;;;36.90;;
69594;SDS011;56800;52.142;5.364;2022-08-19T07:52:34;68.60;;;37.00;;
69594;SDS011;56800;52.142;5.364;2022-08-19T07:55:02;65.95;;;37.83;;
69594;SDS011;56800;52.142;5.364;2022-08-19T07:57:30;60.75;;;35.03;;
69594;SDS011;56800;52.142;5.364;2022-08-19T07:59:57;59.72;;;34.63;;
69594;SDS011;56800;52.142;5.364;2022-08-19T08:02:23;57.13;;;34.63;;
69594;SDS011;56800;52.142;5.364;2022-08-19T08:04:50;59.15;;;35.92;;
69594;SDS011;56800;52.142;5.364;2022-08-19T08:07:35;64.72;;;35.80;;
69594;SDS011;56800;52.142;5.364;2022-08-19T08:10:20;58.95;;;34.30;;
69594;SDS011;56800;52.142;5.364;2022-08-19T08:12:49;59.03;;;35.80;;
69594;SDS011;56800;52.142;5.364;2022-08-19T08:15:35;58.30;;;34.15;;
69594;SDS011;56800;52.142;5.364;2022-08-19T08:18:08;61.47;;;34.03;;
69594;SDS011;56800;52.142;5.364;2022-08-19T08:20:35;58.25;;;35.25;;
69594;SDS011;56800;52.142;5.364;2022-08-19T08:23:02;54.88;;;33.17;;
69594;SDS011;56800;52.142;5.364;2022-08-19T08:25:47;55.35;;;31.65;;
69594;SDS011;56800;52.142;5.364;2022-08-19T08:28:15;55.13;;;32.92;;
69594;SDS011;56800;52.142;5.364;2022-08-19T08:30:46;51.72;;;32.47;;
69594;SDS011;56800;52.142;5.364;2022-08-19T08:33:19;49.10;;;29.38;;
69594;SDS011;56800;52.142;5.364;2022-08-19T08:35:58;45.15;;;29.38;;
69594;SDS011;56800;52.142;5.364;2022-08-19T08:38:25;45.20;;;27.35;;
69594;SDS011;56800;52.142;5.364;2022-08-19T08:40:53;50.13;;;28.92;;
69594;SDS011;56800;52.142;5.364;2022-08-19T08:43:33;44.25;;;27.30;;
69594;SDS011;56800;52.142;5.364;2022-08-19T08:51:37;40.60;;;26.15;;
69594;SDS011;56800;52.142;5.364;2022-08-19T08:54:13;40.90;;;25.65;;
69594;SDS011;56800;52.142;5.364;2022-08-19T08:56:44;46.03;;;27.85;;
69594;SDS011;56800;52.142;5.364;2022-08-19T08:59:16;42.42;;;25.48;;
69594;SDS011;56800;52.142;5.364;2022-08-19T09:01:47;43.33;;;27.73;;
69594;SDS011;56800;52.142;5.364;2022-08-19T09:04:14;41.55;;;26.58;;
69594;SDS011;56800;52.142;5.364;2022-08-19T09:09:56;39.78;;;26.08;;
69594;SDS011;56800;52.142;5.364;2022-08-19T09:15:36;35.50;;;23.35;;
69594;SDS011;56800;52.142;5.364;2022-08-19T09:18:11;35.58;;;21.75;;
69594;SDS011;56800;52.142;5.364;2022-08-19T09:20:44;33.33;;;23.00;;
69594;SDS011;56800;52.142;5.364;2022-08-19T09:23:13;33.50;;;22.55;;
69594;SDS011;56800;52.142;5.364;2022-08-19T09:25:40;33.30;;;22.10;;
69594;SDS011;56800;52.142;5.364;2022-08-19T09:28:06;34.35;;;23.92;;
69594;SDS011;56800;52.142;5.364;2022-08-19T09:30:50;37.00;;;24.20;;
69594;SDS011;56800;52.142;5.364;2022-08-19T09:33:18;29.80;;;21.20;;
69594;SDS011;56800;52.142;5.364;2022-08-19T09:35:45;32.38;;;21.30;;
69594;SDS011;56800;52.142;5.364;2022-08-19T09:38:18;29.05;;;20.52;;
69594;SDS011;56800;52.142;5.364;2022-08-19T09:40:46;31.33;;;21.55;;
69594;SDS011;56800;52.142;5.364;2022-08-19T09:43:13;30.98;;;20.45;;
69594;SDS011;56800;52.142;5.364;2022-08-19T09:45:39;34.28;;;20.33;;
69594;SDS011;56800;52.142;5.364;2022-08-19T09:48:06;29.40;;;19.02;;
69594;SDS011;56800;52.142;5.364;2022-08-19T09:50:36;32.53;;;19.63;;
69594;SDS011;56800;52.142;5.364;2022-08-19T09:53:17;27.23;;;17.70;;
69594;SDS011;56800;52.142;5.364;2022-08-19T09:55:44;27.40;;;16.85;;
69594;SDS011;56800;52.142;5.364;2022-08-19T09:58:11;23.38;;;15.30;;
69594;SDS011;56800;52.142;5.364;2022-08-19T10:00:38;30.58;;;18.35;;
69594;SDS011;56800;52.142;5.364;2022-08-19T10:03:04;29.67;;;18.58;;
69594;SDS011;56800;52.142;5.364;2022-08-19T10:05:32;25.65;;;17.83;;
69594;SDS011;56800;52.142;5.364;2022-08-19T10:08:15;26.30;;;18.17;;
69594;SDS011;56800;52.142;5.364;2022-08-19T10:10:45;27.35;;;17.75;;
69594;SDS011;56800;52.142;5.364;2022-08-19T10:13:14;27.45;;;19.02;;
69594;SDS011;56800;52.142;5.364;2022-08-19T10:15:42;29.42;;;19.08;;
69594;SDS011;56800;52.142;5.364;2022-08-19T10:18:13;24.38;;;16.60;;
69594;SDS011;56800;52.142;5.364;2022-08-19T10:20:44;27.23;;;18.98;;
69594;SDS011;56800;52.142;5.364;2022-08-19T10:23:18;32.42;;;20.65;;
69594;SDS011;56800;52.142;5.364;2022-08-19T10:25:47;25.95;;;20.50;;
69594;SDS011;56800;52.142;5.364;2022-08-19T10:28:14;28.90;;;21.67;;
69594;SDS011;56800;52.142;5.364;2022-08-19T10:30:44;28.38;;;21.60;;
69594;SDS011;56800;52.142;5.364;2022-08-19T10:33:11;32.78;;;20.13;;
69594;SDS011;56800;52.142;5.364;2022-08-19T10:35:38;28.63;;;18.08;;
69594;SDS011;56800;52.142;5.364;2022-08-19T10:38:22;24.98;;;17.88;;
69594;SDS011;56800;52.142;5.364;2022-08-19T10:40:58;28.75;;;17.35;;
69594;SDS011;56800;52.142;5.364;2022-08-19T10:43:32;27.20;;;18.90;;
69594;SDS011;56800;52.142;5.364;2022-08-19T10:46:02;24.23;;;17.52;;
69594;SDS011;56800;52.142;5.364;2022-08-19T10:48:34;32.17;;;21.98;;
69594;SDS011;56800;52.142;5.364;2022-08-19T10:51:01;29.42;;;21.65;;
69594;SDS011;56800;52.142;5.364;2022-08-19T10:53:51;35.95;;;25.30;;
69594;SDS011;56800;52.142;5.364;2022-08-19T10:56:18;36.50;;;23.25;;
69594;SDS011;56800;52.142;5.364;2022-08-19T10:59:04;31.77;;;22.42;;
69594;SDS011;56800;52.142;5.364;2022-08-19T11:01:31;33.65;;;22.88;;
69594;SDS011;56800;52.142;5.364;2022-08-19T11:04:00;34.38;;;22.98;;
69594;SDS011;56800;52.142;5.364;2022-08-19T11:06:27;33.05;;;23.95;;
69594;SDS011;56800;52.142;5.364;2022-08-19T11:08:56;32.88;;;23.58;;
69594;SDS011;56800;52.142;5.364;2022-08-19T11:11:22;33.42;;;22.85;;
69594;SDS011;56800;52.142;5.364;2022-08-19T11:13:49;30.90;;;21.33;;
69594;SDS011;56800;52.142;5.364;2022-08-19T11:16:18;35.50;;;24.33;;
69594;SDS011;56800;52.142;5.364;2022-08-19T11:18:49;29.33;;;23.13;;
69594;SDS011;56800;52.142;5.364;2022-08-19T11:21:24;34.10;;;21.85;;
69594;SDS011;56800;52.142;5.364;2022-08-19T11:23:59;31.13;;;22.70;;
69594;SDS011;56800;52.142;5.364;2022-08-19T11:26:28;29.25;;;20.75;;
69594;SDS011;56800;52.142;5.364;2022-08-19T11:28:56;27.30;;;20.20;;
69594;SDS011;56800;52.142;5.364;2022-08-19T11:31:26;29.02;;;22.80;;
69594;SDS011;56800;52.142;5.364;2022-08-19T11:33:56;29.52;;;20.02;;
69594;SDS011;56800;52.142;5.364;2022-08-19T11:36:25;35.42;;;23.40;;
69594;SDS011;56800;52.142;5.364;2022-08-19T11:38:52;39.60;;;24.98;;
69594;SDS011;56800;52.142;5.364;2022-08-19T11:41:20;33.55;;;22.50;;
69594;SDS011;56800;52.142;5.364;2022-08-19T11:43:52;33.90;;;21.98;;
69594;SDS011;56800;52.142;5.364;2022-08-19T11:46:21;31.60;;;20.85;;
69594;SDS011;56800;52.142;5.364;2022-08-19T11:48:49;31.15;;;20.67;;
69594;SDS011;56800;52.142;5.364;2022-08-19T11:51:19;37.72;;;25.02;;
69594;SDS011;56800;52.142;5.364;2022-08-19T11:53:48;35.47;;;22.48;;
69594;SDS011;56800;52.142;5.364;2022-08-19T11:56:19;37.33;;;24.33;;
69594;SDS011;56800;52.142;5.364;2022-08-19T11:58:47;31.92;;;20.98;;
69594;SDS011;56800;52.142;5.364;2022-08-19T12:01:14;35.10;;;22.35;;
69594;SDS011;56800;52.142;5.364;2022-08-19T12:03:43;33.78;;;21.80;;
69594;SDS011;56800;52.142;5.364;2022-08-19T12:06:12;31.77;;;21.77;;
69594;SDS011;56800;52.142;5.364;2022-08-19T12:08:41;30.08;;;21.00;;
69594;SDS011;56800;52.142;5.364;2022-08-19T12:11:09;31.50;;;20.25;;
69594;SDS011;56800;52.142;5.364;2022-08-19T12:13:37;32.17;;;18.98;;
69594;SDS011;56800;52.142;5.364;2022-08-19T12:16:08;34.15;;;21.40;;
69594;SDS011;56800;52.142;5.364;2022-08-19T12:18:41;34.53;;;22.77;;
69594;SDS011;56800;52.142;5.364;2022-08-19T12:21:12;33.45;;;21.75;;
69594;SDS011;56800;52.142;5.364;2022-08-19T12:23:40;31.67;;;20.30;;
69594;SDS011;56800;52.142;5.364;2022-08-19T12:26:08;33.08;;;20.50;;
69594;SDS011;56800;52.142;5.364;2022-08-19T12:28:36;30.67;;;22.13;;
69594;SDS011;56800;52.142;5.364;2022-08-19T12:31:04;37.00;;;23.08;;
69594;SDS011;56800;52.142;5.364;2022-08-19T12:33:31;26.45;;;20.33;;
69594;SDS011;56800;52.142;5.364;2022-08-19T12:36:02;26.48;;;16.52;;
69594;SDS011;56800;52.142;5.364;2022-08-19T12:38:31;17.73;;;13.57;;
69594;SDS011;56800;52.142;5.364;2022-08-19T12:40:58;18.42;;;13.68;;
69594;SDS011;56800;52.142;5.364;2022-08-19T12:43:25;18.20;;;14.35;;
69594;SDS011;56800;52.142;5.364;2022-08-19T12:45:52;21.23;;;12.55;;
69594;SDS011;56800;52.142;5.364;2022-08-19T12:48:20;19.70;;;14.25;;
69594;SDS011;56800;52.142;5.364;2022-08-19T12:51:00;19.52;;;14.88;;
69594;SDS011;56800;52.142;5.364;2022-08-19T12:53:32;18.60;;;13.50;;
69594;SDS011;56800;52.142;5.364;2022-08-19T12:56:02;19.25;;;14.02;;
69594;SDS011;56800;52.142;5.364;2022-08-19T12:58:32;19.80;;;14.57;;
69594;SDS011;56800;52.142;5.364;2022-08-19T13:01:34;22.42;;;14.50;;
69594;SDS011;56800;52.142;5.364;2022-08-19T13:03:58;25.13;;;17.90;;
69594;SDS011;56800;52.142;5.364;2022-08-19T13:06:26;24.38;;;18.25;;
69594;SDS011;56800;52.142;5.364;2022-08-19T13:08:53;21.17;;;15.63;;
69594;SDS011;56800;52.142;5.364;2022-08-19T13:11:24;25.65;;;17.85;;
69594;SDS011;56800;52.142;5.364;2022-08-19T13:13:52;22.15;;;17.38;;
69594;SDS011;56800;52.142;5.364;2022-08-19T13:16:21;25.20;;;18.48;;
69594;SDS011;56800;52.142;5.364;2022-08-19T13:18:48;26.05;;;18.25;;
69594;SDS011;56800;52.142;5.364;2022-08-19T13:21:18;24.10;;;17.38;;
69594;SDS011;56800;52.142;5.364;2022-08-19T13:23:48;23.30;;;17.73;;
69594;SDS011;56800;52.142;5.364;2022-08-19T13:26:15;23.90;;;17.95;;
69594;SDS011;56800;52.142;5.364;2022-08-19T13:28:43;21.27;;;15.90;;
69594;SDS011;56800;52.142;5.364;2022-08-19T13:31:30;25.85;;;17.05;;
69594;SDS011;56800;52.142;5.364;2022-08-19T13:34:18;18.98;;;16.42;;
69594;SDS011;56800;52.142;5.364;2022-08-19T13:36:55;24.40;;;16.50;;
69594;SDS011;56800;52.142;5.364;2022-08-19T13:39:22;24.75;;;16.45;;
69594;SDS011;56800;52.142;5.364;2022-08-19T13:41:50;20.77;;;17.20;;
69594;SDS011;56800;52.142;5.364;2022-08-19T13:44:17;21.08;;;17.13;;
69594;SDS011;56800;52.142;5.364;2022-08-19T13:46:45;23.48;;;17.23;;
69594;SDS011;56800;52.142;5.364;2022-08-19T13:49:12;22.45;;;17.17;;
69594;SDS011;56800;52.142;5.364;2022-08-19T13:51:41;22.05;;;17.10;;
69594;SDS011;56800;52.142;5.364;2022-08-19T13:54:09;22.42;;;16.63;;
69594;SDS011;56800;52.142;5.364;2022-08-19T13:56:40;19.83;;;15.45;;
69594;SDS011;56800;52.142;5.364;2022-08-19T13:59:09;18.25;;;13.38;;
69594;SDS011;56800;52.142;5.364;2022-08-19T14:01:37;19.33;;;12.80;;
69594;SDS011;56800;52.142;5.364;2022-08-19T14:04:04;18.48;;;12.95;;
69594;SDS011;56800;52.142;5.364;2022-08-19T14:06:32;14.20;;;10.57;;
69594;SDS011;56800;52.142;5.364;2022-08-19T14:08:59;19.35;;;12.40;;
69594;SDS011;56800;52.142;5.364;2022-08-19T14:11:28;16.08;;;12.20;;
69594;SDS011;56800;52.142;5.364;2022-08-19T14:13:55;15.60;;;11.93;;
69594;SDS011;56800;52.142;5.364;2022-08-19T14:16:22;18.17;;;11.05;;
69594;SDS011;56800;52.142;5.364;2022-08-19T14:18:49;15.25;;;11.25;;
69594;SDS011;56800;52.142;5.364;2022-08-19T14:21:22;17.17;;;11.98;;
69594;SDS011;56800;52.142;5.364;2022-08-19T14:23:50;22.27;;;13.45;;
69594;SDS011;56800;52.142;5.364;2022-08-19T14:26:17;20.58;;;12.13;;
69594;SDS011;56800;52.142;5.364;2022-08-19T14:28:45;15.15;;;10.75;;
69594;SDS011;56800;52.142;5.364;2022-08-19T14:31:13;18.55;;;11.90;;
69594;SDS011;56800;52.142;5.364;2022-08-19T14:33:47;16.08;;;12.38;;
69594;SDS011;56800;52.142;5.364;2022-08-19T14:36:14;15.52;;;11.57;;
69594;SDS011;56800;52.142;5.364;2022-08-19T14:38:41;15.07;;;10.25;;
69594;SDS011;56800;52.142;5.364;2022-08-19T14:43:34;14.75;;;10.55;;
69594;SDS011;56800;52.142;5.364;2022-08-19T14:46:01;11.50;;;8.70;;
69594;SDS011;56800;52.142;5.364;2022-08-19T14:48:28;14.88;;;9.82;;
69594;SDS011;56800;52.142;5.364;2022-08-19T14:50:54;12.35;;;10.20;;
69594;SDS011;56800;52.142;5.364;2022-08-19T14:53:21;12.80;;;9.07;;
69594;SDS011;56800;52.142;5.364;2022-08-19T14:55:48;11.43;;;7.95;;